sensor_id;sensor_type;location;lat;lon;timestamp;temperature;humidity
33476;DHT22;19814;48.224;11.422;2023-07-29T00:02:19;17.00;99.90
33476;DHT22;19814;48.224;11.422;2023-07-29T00:04:45;17.00;99.90
33476;DHT22;19814;48.224;11.422;2023-07-29T00:07:11;17.00;99.90
33476;DHT22;19814;48.224;11.422;2023-07-29T00:09:39;16.90;99.90
33476;DHT22;19814;48.224;11.422;2023-07-29T00:12:05;16.90;99.90
33476;DHT22;19814;48.224;11.422;2023-07-29T00:14:30;16.90;99.90
33476;DHT22;19814;48.224;11.422;2023-07-29T00:16:56;16.90;99.90
33476;DHT22;19814;48.224;11.422;2023-07-29T00:19:21;16.90;99.90
33476;DHT22;19814;48.224;11.422;2023-07-29T00:21:49;16.80;99.90
33476;DHT22;19814;48.224;11.422;2023-07-29T00:24:14;16.80;99.90
33476;DHT22;19814;48.224;11.422;2023-07-29T00:26:40;16.90;99.90
33476;DHT22;19814;48.224;11.422;2023-07-29T00:29:08;16.80;99.90
33476;DHT22;19814;48.224;11.422;2023-07-29T00:31:34;16.80;99.90
33476;DHT22;19814;48.224;11.422;2023-07-29T00:34:00;16.90;99.90
33476;DHT22;19814;48.224;11.422;2023-07-29T00:36:25;16.90;99.90
33476;DHT22;19814;48.224;11.422;2023-07-29T00:38:51;16.90;99.90
33476;DHT22;19814;48.224;11.422;2023-07-29T00:41:18;16.90;99.90
33476;DHT22;19814;48.224;11.422;2023-07-29T00:43:44;16.90;99.90
33476;DHT22;19814;48.224;11.422;2023-07-29T00:46:10;16.90;99.90
33476;DHT22;19814;48.224;11.422;2023-07-29T00:48:38;16.90;99.90
33476;DHT22;19814;48.224;11.422;2023-07-29T00:51:03;16.90;99.90
33476;DHT22;19814;48.224;11.422;2023-07-29T00:53:29;16.90;99.90
33476;DHT22;19814;48.224;11.422;2023-07-29T00:55:55;16.90;99.90
33476;DHT22;19814;48.224;11.422;2023-07-29T00:58:20;16.90;99.90
33476;DHT22;19814;48.224;11.422;2023-07-29T01:00:46;16.90;99.90
33476;DHT22;19814;48.224;11.422;2023-07-29T01:03:12;16.80;99.90
33476;DHT22;19814;48.224;11.422;2023-07-29T01:08:51;16.70;99.90
33476;DHT22;19814;48.224;11.422;2023-07-29T01:14:18;16.70;99.90
33476;DHT22;19814;48.224;11.422;2023-07-29T01:16:55;16.70;99.90
33476;DHT22;19814;48.224;11.422;2023-07-29T01:20:00;16.70;99.90
33476;DHT22;19814;48.224;11.422;2023-07-29T01:22:35;16.60;99.90
33476;DHT22;19814;48.224;11.422;2023-07-29T01:25:03;16.50;99.90
33476;DHT22;19814;48.224;11.422;2023-07-29T01:27:29;16.50;99.90
33476;DHT22;19814;48.224;11.422;2023-07-29T01:29:56;16.50;99.90
33476;DHT22;19814;48.224;11.422;2023-07-29T01:35:11;16.40;99.90
33476;DHT22;19814;48.224;11.422;2023-07-29T01:37:40;16.40;99.90
33476;DHT22;19814;48.224;11.422;2023-07-29T01:40:08;16.40;99.90
33476;DHT22;19814;48.224;11.422;2023-07-29T01:42:34;16.30;99.90
33476;DHT22;19814;48.224;11.422;2023-07-29T01:45:00;16.30;99.90
33476;DHT22;19814;48.224;11.422;2023-07-29T01:47:26;16.30;99.90
33476;DHT22;19814;48.224;11.422;2023-07-29T01:49:51;16.20;99.90
33476;DHT22;19814;48.224;11.422;2023-07-29T01:52:17;16.20;99.90
33476;DHT22;19814;48.224;11.422;2023-07-29T01:54:42;16.20;99.90
33476;DHT22;19814;48.224;11.422;2023-07-29T01:57:08;16.20;99.90
33476;DHT22;19814;48.224;11.422;2023-07-29T01:59:33;16.10;99.90
33476;DHT22;19814;48.224;11.422;2023-07-29T02:01:59;16.10;99.90
33476;DHT22;19814;48.224;11.422;2023-07-29T02:04:24;16.00;99.90
33476;DHT22;19814;48.224;11.422;2023-07-29T02:06:50;15.90;99.90
33476;DHT22;19814;48.224;11.422;2023-07-29T02:09:15;15.90;99.90
33476;DHT22;19814;48.224;11.422;2023-07-29T02:11:41;15.80;99.90
33476;DHT22;19814;48.224;11.422;2023-07-29T02:14:06;15.80;99.90
33476;DHT22;19814;48.224;11.422;2023-07-29T02:16:32;15.80;99.90
33476;DHT22;19814;48.224;11.422;2023-07-29T02:18:59;15.90;99.90
33476;DHT22;19814;48.224;11.422;2023-07-29T02:21:25;15.80;99.90
33476;DHT22;19814;48.224;11.422;2023-07-29T02:23:50;15.80;99.90
33476;DHT22;19814;48.224;11.422;2023-07-29T02:26:16;15.80;99.90
33476;DHT22;19814;48.224;11.422;2023-07-29T02:28:42;15.80;99.90
33476;DHT22;19814;48.224;11.422;2023-07-29T02:31:18;15.80;99.90
33476;DHT22;19814;48.224;11.422;2023-07-29T02:33:43;15.70;99.90
33476;DHT22;19814;48.224;11.422;2023-07-29T02:36:10;15.70;99.90
33476;DHT22;19814;48.224;11.422;2023-07-29T02:38:35;15.70;99.90
33476;DHT22;19814;48.224;11.422;2023-07-29T02:41:01;15.60;99.90
33476;DHT22;19814;48.224;11.422;2023-07-29T02:43:26;15.60;99.90
33476;DHT22;19814;48.224;11.422;2023-07-29T02:45:52;15.60;99.90
33476;DHT22;19814;48.224;11.422;2023-07-29T02:48:17;15.70;99.90
33476;DHT22;19814;48.224;11.422;2023-07-29T02:50:43;15.70;99.90
33476;DHT22;19814;48.224;11.422;2023-07-29T02:53:08;15.70;99.90
33476;DHT22;19814;48.224;11.422;2023-07-29T02:55:34;15.70;99.90
33476;DHT22;19814;48.224;11.422;2023-07-29T02:57:59;15.70;99.90
33476;DHT22;19814;48.224;11.422;2023-07-29T03:00:25;15.80;99.90
33476;DHT22;19814;48.224;11.422;2023-07-29T03:02:50;15.80;99.90
33476;DHT22;19814;48.224;11.422;2023-07-29T03:05:16;15.80;99.90
33476;DHT22;19814;48.224;11.422;2023-07-29T03:07:42;15.80;99.90
33476;DHT22;19814;48.224;11.422;2023-07-29T03:10:08;15.80;99.90
33476;DHT22;19814;48.224;11.422;2023-07-29T03:12:34;15.70;99.90
33476;DHT22;19814;48.224;11.422;2023-07-29T03:14:59;15.70;99.90
33476;DHT22;19814;48.224;11.422;2023-07-29T03:17:25;15.60;99.90
33476;DHT22;19814;48.224;11.422;2023-07-29T03:19:51;15.60;99.90
33476;DHT22;19814;48.224;11.422;2023-07-29T03:22:17;15.60;99.90
33476;DHT22;19814;48.224;11.422;2023-07-29T03:24:42;15.50;99.90
33476;DHT22;19814;48.224;11.422;2023-07-29T03:27:08;15.50;99.90
33476;DHT22;19814;48.224;11.422;2023-07-29T03:29:35;15.50;99.90
33476;DHT22;19814;48.224;11.422;2023-07-29T03:32:01;15.40;99.90
33476;DHT22;19814;48.224;11.422;2023-07-29T03:34:26;15.40;99.90
33476;DHT22;19814;48.224;11.422;2023-07-29T03:36:52;15.40;99.90
33476;DHT22;19814;48.224;11.422;2023-07-29T03:39:17;15.40;99.90
33476;DHT22;19814;48.224;11.422;2023-07-29T03:41:43;15.40;99.90
33476;DHT22;19814;48.224;11.422;2023-07-29T03:44:08;15.40;99.90
33476;DHT22;19814;48.224;11.422;2023-07-29T03:46:34;15.50;99.90
33476;DHT22;19814;48.224;11.422;2023-07-29T03:48:59;15.50;99.90
33476;DHT22;19814;48.224;11.422;2023-07-29T03:51:25;15.60;99.90
33476;DHT22;19814;48.224;11.422;2023-07-29T03:53:50;15.60;99.90
33476;DHT22;19814;48.224;11.422;2023-07-29T03:56:16;15.60;99.90
33476;DHT22;19814;48.224;11.422;2023-07-29T03:58:42;15.60;99.90
33476;DHT22;19814;48.224;11.422;2023-07-29T04:01:09;15.70;99.90
33476;DHT22;19814;48.224;11.422;2023-07-29T04:03:34;15.80;99.90
33476;DHT22;19814;48.224;11.422;2023-07-29T04:06:00;15.80;99.90
33476;DHT22;19814;48.224;11.422;2023-07-29T04:08:26;15.90;99.90
33476;DHT22;19814;48.224;11.422;2023-07-29T04:10:52;15.90;99.90
33476;DHT22;19814;48.224;11.422;2023-07-29T04:13:17;15.90;99.90
33476;DHT22;19814;48.224;11.422;2023-07-29T04:15:43;15.90;99.90
33476;DHT22;19814;48.224;11.422;2023-07-29T04:18:08;16.00;99.90
33476;DHT22;19814;48.224;11.422;2023-07-29T04:20:34;15.90;99.90
33476;DHT22;19814;48.224;11.422;2023-07-29T04:22:59;15.90;99.90
33476;DHT22;19814;48.224;11.422;2023-07-29T04:25:25;15.90;99.90
33476;DHT22;19814;48.224;11.422;2023-07-29T04:27:50;15.90;99.90
33476;DHT22;19814;48.224;11.422;2023-07-29T04:30:16;15.90;99.90
33476;DHT22;19814;48.224;11.422;2023-07-29T04:32:42;15.90;99.90
33476;DHT22;19814;48.224;11.422;2023-07-29T04:35:08;15.90;99.90
33476;DHT22;19814;48.224;11.422;2023-07-29T04:37:34;15.90;99.90
33476;DHT22;19814;48.224;11.422;2023-07-29T04:40:00;15.90;99.90
33476;DHT22;19814;48.224;11.422;2023-07-29T04:42:25;15.90;99.90
33476;DHT22;19814;48.224;11.422;2023-07-29T04:44:51;15.90;99.90
33476;DHT22;19814;48.224;11.422;2023-07-29T04:47:16;15.90;99.90
33476;DHT22;19814;48.224;11.422;2023-07-29T04:49:44;16.00;99.90
33476;DHT22;19814;48.224;11.422;2023-07-29T04:52:09;16.00;99.90
33476;DHT22;19814;48.224;11.422;2023-07-29T04:54:35;16.10;99.90
33476;DHT22;19814;48.224;11.422;2023-07-29T04:57:00;16.20;99.90
33476;DHT22;19814;48.224;11.422;2023-07-29T04:59:26;16.30;99.90
33476;DHT22;19814;48.224;11.422;2023-07-29T05:01:51;16.40;99.90
33476;DHT22;19814;48.224;11.422;2023-07-29T05:04:17;16.50;99.90
33476;DHT22;19814;48.224;11.422;2023-07-29T05:06:42;16.60;99.90
33476;DHT22;19814;48.224;11.422;2023-07-29T05:09:18;16.70;99.90
33476;DHT22;19814;48.224;11.422;2023-07-29T05:11:45;16.90;99.90
33476;DHT22;19814;48.224;11.422;2023-07-29T05:14:12;17.00;99.90
33476;DHT22;19814;48.224;11.422;2023-07-29T05:16:38;17.00;99.90
33476;DHT22;19814;48.224;11.422;2023-07-29T05:19:03;17.20;99.90
33476;DHT22;19814;48.224;11.422;2023-07-29T05:21:29;17.20;99.90
33476;DHT22;19814;48.224;11.422;2023-07-29T05:23:55;17.30;99.90
33476;DHT22;19814;48.224;11.422;2023-07-29T05:26:21;17.40;99.90
33476;DHT22;19814;48.224;11.422;2023-07-29T05:28:47;17.40;99.90
33476;DHT22;19814;48.224;11.422;2023-07-29T05:31:12;17.50;99.90
33476;DHT22;19814;48.224;11.422;2023-07-29T05:33:38;17.70;99.90
33476;DHT22;19814;48.224;11.422;2023-07-29T05:36:03;17.80;99.90
33476;DHT22;19814;48.224;11.422;2023-07-29T05:38:30;17.90;99.90
33476;DHT22;19814;48.224;11.422;2023-07-29T05:40:56;17.90;99.90
33476;DHT22;19814;48.224;11.422;2023-07-29T05:43:21;18.00;99.90
33476;DHT22;19814;48.224;11.422;2023-07-29T05:45:47;18.00;99.90
33476;DHT22;19814;48.224;11.422;2023-07-29T05:48:12;18.00;99.90
33476;DHT22;19814;48.224;11.422;2023-07-29T05:50:38;17.90;99.90
33476;DHT22;19814;48.224;11.422;2023-07-29T05:53:03;17.90;99.90
33476;DHT22;19814;48.224;11.422;2023-07-29T05:55:29;17.90;99.90
33476;DHT22;19814;48.224;11.422;2023-07-29T05:57:54;17.90;99.90
33476;DHT22;19814;48.224;11.422;2023-07-29T06:00:20;17.90;99.90
33476;DHT22;19814;48.224;11.422;2023-07-29T06:02:46;17.80;99.90
33476;DHT22;19814;48.224;11.422;2023-07-29T06:05:11;17.90;99.90
33476;DHT22;19814;48.224;11.422;2023-07-29T06:07:37;17.90;99.90
33476;DHT22;19814;48.224;11.422;2023-07-29T06:10:03;17.90;99.90
33476;DHT22;19814;48.224;11.422;2023-07-29T06:12:29;17.90;99.90
33476;DHT22;19814;48.224;11.422;2023-07-29T06:14:54;18.00;99.90
33476;DHT22;19814;48.224;11.422;2023-07-29T06:17:20;18.00;99.90
33476;DHT22;19814;48.224;11.422;2023-07-29T06:19:45;18.10;99.90
33476;DHT22;19814;48.224;11.422;2023-07-29T06:22:11;18.30;99.90
33476;DHT22;19814;48.224;11.422;2023-07-29T06:24:36;18.40;99.90
33476;DHT22;19814;48.224;11.422;2023-07-29T06:27:02;18.50;99.90
33476;DHT22;19814;48.224;11.422;2023-07-29T06:29:28;18.60;99.90
33476;DHT22;19814;48.224;11.422;2023-07-29T06:31:54;18.70;99.90
33476;DHT22;19814;48.224;11.422;2023-07-29T06:34:20;18.80;99.90
33476;DHT22;19814;48.224;11.422;2023-07-29T06:36:45;18.80;99.90
33476;DHT22;19814;48.224;11.422;2023-07-29T06:39:11;18.80;99.90
33476;DHT22;19814;48.224;11.422;2023-07-29T06:41:36;18.90;99.90
33476;DHT22;19814;48.224;11.422;2023-07-29T06:44:04;18.90;99.90
33476;DHT22;19814;48.224;11.422;2023-07-29T06:46:29;18.90;99.90
33476;DHT22;19814;48.224;11.422;2023-07-29T06:48:55;18.90;99.90
33476;DHT22;19814;48.224;11.422;2023-07-29T06:51:20;18.80;99.90
33476;DHT22;19814;48.224;11.422;2023-07-29T06:53:46;18.70;99.90
33476;DHT22;19814;48.224;11.422;2023-07-29T06:56:11;18.60;99.90
33476;DHT22;19814;48.224;11.422;2023-07-29T06:58:37;18.50;99.90
33476;DHT22;19814;48.224;11.422;2023-07-29T07:01:02;18.30;99.90
33476;DHT22;19814;48.224;11.422;2023-07-29T07:03:28;18.00;99.90
33476;DHT22;19814;48.224;11.422;2023-07-29T07:05:56;17.70;99.90
33476;DHT22;19814;48.224;11.422;2023-07-29T07:08:22;17.50;99.90
33476;DHT22;19814;48.224;11.422;2023-07-29T07:10:48;17.40;99.90
33476;DHT22;19814;48.224;11.422;2023-07-29T07:13:13;17.30;99.90
33476;DHT22;19814;48.224;11.422;2023-07-29T07:15:42;17.30;99.90
33476;DHT22;19814;48.224;11.422;2023-07-29T07:18:10;17.30;99.90
33476;DHT22;19814;48.224;11.422;2023-07-29T07:20:36;17.30;99.90
33476;DHT22;19814;48.224;11.422;2023-07-29T07:23:02;17.40;99.90
33476;DHT22;19814;48.224;11.422;2023-07-29T07:25:28;17.40;99.90
33476;DHT22;19814;48.224;11.422;2023-07-29T07:27:53;17.30;99.90
33476;DHT22;19814;48.224;11.422;2023-07-29T07:30:19;17.30;99.90
33476;DHT22;19814;48.224;11.422;2023-07-29T07:32:45;17.30;99.90
33476;DHT22;19814;48.224;11.422;2023-07-29T07:35:10;17.40;99.90
33476;DHT22;19814;48.224;11.422;2023-07-29T07:37:36;17.40;99.90
33476;DHT22;19814;48.224;11.422;2023-07-29T07:40:01;17.40;99.90
33476;DHT22;19814;48.224;11.422;2023-07-29T07:42:29;17.50;99.90
33476;DHT22;19814;48.224;11.422;2023-07-29T07:44:55;17.60;99.90
33476;DHT22;19814;48.224;11.422;2023-07-29T07:47:20;17.70;99.90
33476;DHT22;19814;48.224;11.422;2023-07-29T07:49:46;17.90;99.90
33476;DHT22;19814;48.224;11.422;2023-07-29T07:52:11;17.90;99.90
33476;DHT22;19814;48.224;11.422;2023-07-29T07:54:37;18.00;99.90
33476;DHT22;19814;48.224;11.422;2023-07-29T07:57:02;18.20;99.90
33476;DHT22;19814;48.224;11.422;2023-07-29T07:59:28;18.30;99.90
33476;DHT22;19814;48.224;11.422;2023-07-29T08:01:54;18.30;99.90
33476;DHT22;19814;48.224;11.422;2023-07-29T08:04:22;18.50;99.90
33476;DHT22;19814;48.224;11.422;2023-07-29T08:06:51;18.50;99.90
33476;DHT22;19814;48.224;11.422;2023-07-29T08:09:16;18.60;99.90
33476;DHT22;19814;48.224;11.422;2023-07-29T08:11:42;18.60;99.90
33476;DHT22;19814;48.224;11.422;2023-07-29T08:14:07;18.70;99.90
33476;DHT22;19814;48.224;11.422;2023-07-29T08:16:33;18.70;99.90
33476;DHT22;19814;48.224;11.422;2023-07-29T08:18:58;18.70;99.90
33476;DHT22;19814;48.224;11.422;2023-07-29T08:21:24;18.80;99.90
33476;DHT22;19814;48.224;11.422;2023-07-29T08:23:49;18.90;99.90
33476;DHT22;19814;48.224;11.422;2023-07-29T08:26:15;19.00;99.90
33476;DHT22;19814;48.224;11.422;2023-07-29T08:28:42;19.10;99.90
33476;DHT22;19814;48.224;11.422;2023-07-29T08:31:07;19.10;99.90
33476;DHT22;19814;48.224;11.422;2023-07-29T08:33:33;19.20;99.90
33476;DHT22;19814;48.224;11.422;2023-07-29T08:35:59;19.30;99.90
33476;DHT22;19814;48.224;11.422;2023-07-29T08:38:25;19.40;99.90
33476;DHT22;19814;48.224;11.422;2023-07-29T08:43:29;19.40;99.90
33476;DHT22;19814;48.224;11.422;2023-07-29T08:45:57;19.50;99.90
33476;DHT22;19814;48.224;11.422;2023-07-29T08:48:39;19.50;99.90
33476;DHT22;19814;48.224;11.422;2023-07-29T08:51:05;19.60;99.90
33476;DHT22;19814;48.224;11.422;2023-07-29T08:53:33;19.70;99.90
33476;DHT22;19814;48.224;11.422;2023-07-29T08:55:59;19.90;99.90
33476;DHT22;19814;48.224;11.422;2023-07-29T08:58:25;20.10;99.90
33476;DHT22;19814;48.224;11.422;2023-07-29T09:00:51;20.10;99.90
33476;DHT22;19814;48.224;11.422;2023-07-29T09:03:17;20.20;99.90
33476;DHT22;19814;48.224;11.422;2023-07-29T09:05:42;20.40;99.90
33476;DHT22;19814;48.224;11.422;2023-07-29T09:08:10;20.70;99.90
33476;DHT22;19814;48.224;11.422;2023-07-29T09:10:37;20.90;99.90
33476;DHT22;19814;48.224;11.422;2023-07-29T09:13:03;21.20;99.90
33476;DHT22;19814;48.224;11.422;2023-07-29T09:15:30;21.70;99.90
33476;DHT22;19814;48.224;11.422;2023-07-29T09:17:57;22.20;99.90
33476;DHT22;19814;48.224;11.422;2023-07-29T09:20:31;22.70;99.90
33476;DHT22;19814;48.224;11.422;2023-07-29T09:22:59;23.00;99.90
33476;DHT22;19814;48.224;11.422;2023-07-29T09:25:28;23.20;99.90
33476;DHT22;19814;48.224;11.422;2023-07-29T09:28:01;23.30;99.90
33476;DHT22;19814;48.224;11.422;2023-07-29T09:30:27;23.70;99.90
33476;DHT22;19814;48.224;11.422;2023-07-29T09:32:57;24.20;99.90
33476;DHT22;19814;48.224;11.422;2023-07-29T09:35:23;24.10;99.90
33476;DHT22;19814;48.224;11.422;2023-07-29T09:37:50;24.30;99.90
33476;DHT22;19814;48.224;11.422;2023-07-29T09:40:17;24.40;99.90
33476;DHT22;19814;48.224;11.422;2023-07-29T09:42:54;24.60;99.90
33476;DHT22;19814;48.224;11.422;2023-07-29T09:45:24;24.50;99.90
33476;DHT22;19814;48.224;11.422;2023-07-29T09:47:52;24.70;99.90
33476;DHT22;19814;48.224;11.422;2023-07-29T09:50:18;24.80;99.90
33476;DHT22;19814;48.224;11.422;2023-07-29T09:52:45;25.00;99.90
33476;DHT22;19814;48.224;11.422;2023-07-29T09:55:18;25.30;99.90
33476;DHT22;19814;48.224;11.422;2023-07-29T09:57:45;25.70;99.90
33476;DHT22;19814;48.224;11.422;2023-07-29T10:00:13;26.10;99.90
33476;DHT22;19814;48.224;11.422;2023-07-29T10:02:40;26.70;99.90
33476;DHT22;19814;48.224;11.422;2023-07-29T10:05:07;27.10;99.90
33476;DHT22;19814;48.224;11.422;2023-07-29T10:07:36;27.10;99.90
33476;DHT22;19814;48.224;11.422;2023-07-29T10:10:03;27.20;99.90
33476;DHT22;19814;48.224;11.422;2023-07-29T10:12:31;27.20;98.50
33476;DHT22;19814;48.224;11.422;2023-07-29T10:14:59;27.10;99.90
33476;DHT22;19814;48.224;11.422;2023-07-29T10:17:26;27.00;99.00
33476;DHT22;19814;48.224;11.422;2023-07-29T10:19:53;27.20;99.90
33476;DHT22;19814;48.224;11.422;2023-07-29T10:22:20;27.30;99.90
33476;DHT22;19814;48.224;11.422;2023-07-29T10:24:47;27.50;99.90
33476;DHT22;19814;48.224;11.422;2023-07-29T10:27:17;27.70;99.90
33476;DHT22;19814;48.224;11.422;2023-07-29T10:29:44;27.80;99.90
33476;DHT22;19814;48.224;11.422;2023-07-29T10:32:11;28.00;97.80
33476;DHT22;19814;48.224;11.422;2023-07-29T10:34:37;27.80;96.00
33476;DHT22;19814;48.224;11.422;2023-07-29T10:37:04;27.80;99.80
33476;DHT22;19814;48.224;11.422;2023-07-29T10:39:38;27.60;97.80
33476;DHT22;19814;48.224;11.422;2023-07-29T10:42:06;27.20;98.50
33476;DHT22;19814;48.224;11.422;2023-07-29T10:47:12;26.90;98.10
33476;DHT22;19814;48.224;11.422;2023-07-29T10:49:40;26.40;97.30
33476;DHT22;19814;48.224;11.422;2023-07-29T10:52:06;26.00;98.00
33476;DHT22;19814;48.224;11.422;2023-07-29T10:54:45;25.90;97.60
33476;DHT22;19814;48.224;11.422;2023-07-29T10:57:38;25.80;96.90
33476;DHT22;19814;48.224;11.422;2023-07-29T11:00:06;25.40;93.50
33476;DHT22;19814;48.224;11.422;2023-07-29T11:02:34;24.60;95.30
33476;DHT22;19814;48.224;11.422;2023-07-29T11:05:05;23.90;96.60
33476;DHT22;19814;48.224;11.422;2023-07-29T11:07:31;23.40;97.90
33476;DHT22;19814;48.224;11.422;2023-07-29T11:10:11;23.20;99.90
33476;DHT22;19814;48.224;11.422;2023-07-29T11:12:50;23.30;99.90
33476;DHT22;19814;48.224;11.422;2023-07-29T11:15:34;23.10;99.90
33476;DHT22;19814;48.224;11.422;2023-07-29T11:18:01;22.90;99.70
33476;DHT22;19814;48.224;11.422;2023-07-29T11:20:37;23.00;99.70
33476;DHT22;19814;48.224;11.422;2023-07-29T11:23:03;23.50;99.20
33476;DHT22;19814;48.224;11.422;2023-07-29T11:25:31;23.80;99.40
33476;DHT22;19814;48.224;11.422;2023-07-29T11:27:58;24.10;99.20
33476;DHT22;19814;48.224;11.422;2023-07-29T11:30:24;24.20;97.50
33476;DHT22;19814;48.224;11.422;2023-07-29T11:32:54;24.10;98.20
33476;DHT22;19814;48.224;11.422;2023-07-29T11:35:23;24.20;99.00
33476;DHT22;19814;48.224;11.422;2023-07-29T11:37:50;24.60;97.30
33476;DHT22;19814;48.224;11.422;2023-07-29T11:40:20;24.90;97.50
33476;DHT22;19814;48.224;11.422;2023-07-29T11:42:47;25.10;97.40
33476;DHT22;19814;48.224;11.422;2023-07-29T11:45:13;25.40;96.80
33476;DHT22;19814;48.224;11.422;2023-07-29T11:47:39;25.60;96.50
33476;DHT22;19814;48.224;11.422;2023-07-29T11:50:08;25.70;96.30
33476;DHT22;19814;48.224;11.422;2023-07-29T11:52:44;25.80;96.40
33476;DHT22;19814;48.224;11.422;2023-07-29T11:55:11;26.00;95.60
33476;DHT22;19814;48.224;11.422;2023-07-29T11:57:38;26.30;95.50
33476;DHT22;19814;48.224;11.422;2023-07-29T12:00:09;26.40;95.10
33476;DHT22;19814;48.224;11.422;2023-07-29T12:02:44;26.40;95.50
33476;DHT22;19814;48.224;11.422;2023-07-29T12:05:10;26.50;95.40
33476;DHT22;19814;48.224;11.422;2023-07-29T12:07:40;26.60;94.90
33476;DHT22;19814;48.224;11.422;2023-07-29T12:10:06;26.70;95.20
33476;DHT22;19814;48.224;11.422;2023-07-29T12:12:32;26.80;95.80
33476;DHT22;19814;48.224;11.422;2023-07-29T12:14:58;26.80;95.70
33476;DHT22;19814;48.224;11.422;2023-07-29T12:17:26;26.90;95.60
33476;DHT22;19814;48.224;11.422;2023-07-29T12:19:54;27.00;95.80
33476;DHT22;19814;48.224;11.422;2023-07-29T12:22:20;26.70;95.90
33476;DHT22;19814;48.224;11.422;2023-07-29T12:24:46;26.40;96.70
33476;DHT22;19814;48.224;11.422;2023-07-29T12:27:13;26.00;96.40
33476;DHT22;19814;48.224;11.422;2023-07-29T12:29:43;25.60;96.50
33476;DHT22;19814;48.224;11.422;2023-07-29T12:32:09;25.30;97.60
33476;DHT22;19814;48.224;11.422;2023-07-29T12:34:36;24.80;98.20
33476;DHT22;19814;48.224;11.422;2023-07-29T12:37:04;24.50;99.40
33476;DHT22;19814;48.224;11.422;2023-07-29T12:39:34;24.30;99.90
33476;DHT22;19814;48.224;11.422;2023-07-29T12:42:00;23.90;99.90
33476;DHT22;19814;48.224;11.422;2023-07-29T12:44:31;23.60;99.90
33476;DHT22;19814;48.224;11.422;2023-07-29T12:46:57;23.30;99.90
33476;DHT22;19814;48.224;11.422;2023-07-29T12:49:22;23.00;99.90
33476;DHT22;19814;48.224;11.422;2023-07-29T12:51:48;22.90;99.90
33476;DHT22;19814;48.224;11.422;2023-07-29T12:54:14;22.80;99.90
33476;DHT22;19814;48.224;11.422;2023-07-29T12:56:40;22.70;99.90
33476;DHT22;19814;48.224;11.422;2023-07-29T12:59:05;22.50;99.90
33476;DHT22;19814;48.224;11.422;2023-07-29T13:01:31;22.40;99.90
33476;DHT22;19814;48.224;11.422;2023-07-29T13:03:57;22.30;99.90
33476;DHT22;19814;48.224;11.422;2023-07-29T13:06:22;22.20;99.90
33476;DHT22;19814;48.224;11.422;2023-07-29T13:08:48;22.10;99.90
33476;DHT22;19814;48.224;11.422;2023-07-29T13:11:15;22.00;99.90
33476;DHT22;19814;48.224;11.422;2023-07-29T13:13:40;21.90;99.90
33476;DHT22;19814;48.224;11.422;2023-07-29T13:16:06;21.90;99.90
33476;DHT22;19814;48.224;11.422;2023-07-29T13:18:32;21.90;99.90
33476;DHT22;19814;48.224;11.422;2023-07-29T13:20:58;21.80;99.90
33476;DHT22;19814;48.224;11.422;2023-07-29T13:23:25;21.80;99.90
33476;DHT22;19814;48.224;11.422;2023-07-29T13:25:51;21.80;99.90
33476;DHT22;19814;48.224;11.422;2023-07-29T13:28:16;21.70;99.90
33476;DHT22;19814;48.224;11.422;2023-07-29T13:30:42;21.80;99.90
33476;DHT22;19814;48.224;11.422;2023-07-29T13:33:08;21.70;99.90
33476;DHT22;19814;48.224;11.422;2023-07-29T13:35:33;21.70;99.90
33476;DHT22;19814;48.224;11.422;2023-07-29T13:38:00;21.70;99.90
33476;DHT22;19814;48.224;11.422;2023-07-29T13:40:26;21.70;99.90
33476;DHT22;19814;48.224;11.422;2023-07-29T13:42:51;21.70;99.90
33476;DHT22;19814;48.224;11.422;2023-07-29T13:45:18;21.70;99.90
33476;DHT22;19814;48.224;11.422;2023-07-29T13:47:43;21.70;99.90
33476;DHT22;19814;48.224;11.422;2023-07-29T13:50:09;21.80;99.90
33476;DHT22;19814;48.224;11.422;2023-07-29T13:52:36;21.80;99.90
33476;DHT22;19814;48.224;11.422;2023-07-29T13:55:03;21.80;99.90
33476;DHT22;19814;48.224;11.422;2023-07-29T13:57:28;21.70;99.90
33476;DHT22;19814;48.224;11.422;2023-07-29T13:59:54;21.70;99.90
33476;DHT22;19814;48.224;11.422;2023-07-29T14:02:20;21.50;99.90
33476;DHT22;19814;48.224;11.422;2023-07-29T14:04:45;21.40;99.90
33476;DHT22;19814;48.224;11.422;2023-07-29T14:07:11;21.40;99.90
33476;DHT22;19814;48.224;11.422;2023-07-29T14:09:36;21.40;99.90
33476;DHT22;19814;48.224;11.422;2023-07-29T14:12:04;21.40;99.90
33476;DHT22;19814;48.224;11.422;2023-07-29T14:14:30;21.30;99.90
33476;DHT22;19814;48.224;11.422;2023-07-29T14:16:55;21.30;99.90
33476;DHT22;19814;48.224;11.422;2023-07-29T14:19:24;21.30;99.90
33476;DHT22;19814;48.224;11.422;2023-07-29T14:21:50;21.30;99.90
33476;DHT22;19814;48.224;11.422;2023-07-29T14:24:15;21.20;99.90
33476;DHT22;19814;48.224;11.422;2023-07-29T14:26:42;21.20;99.90
33476;DHT22;19814;48.224;11.422;2023-07-29T14:29:07;21.10;99.90
33476;DHT22;19814;48.224;11.422;2023-07-29T14:31:33;21.00;99.90
33476;DHT22;19814;48.224;11.422;2023-07-29T14:33:58;20.90;99.90
33476;DHT22;19814;48.224;11.422;2023-07-29T14:36:25;20.90;99.90
33476;DHT22;19814;48.224;11.422;2023-07-29T14:38:50;20.90;99.90
33476;DHT22;19814;48.224;11.422;2023-07-29T14:41:16;20.80;99.90
33476;DHT22;19814;48.224;11.422;2023-07-29T14:43:42;20.70;99.90
33476;DHT22;19814;48.224;11.422;2023-07-29T14:46:07;20.60;99.90
33476;DHT22;19814;48.224;11.422;2023-07-29T14:48:33;20.50;99.90
33476;DHT22;19814;48.224;11.422;2023-07-29T14:50:58;20.40;99.90
33476;DHT22;19814;48.224;11.422;2023-07-29T14:53:24;20.30;99.90
33476;DHT22;19814;48.224;11.422;2023-07-29T14:55:50;20.10;99.90
33476;DHT22;19814;48.224;11.422;2023-07-29T14:58:16;20.00;99.90
33476;DHT22;19814;48.224;11.422;2023-07-29T15:00:42;19.80;99.90
33476;DHT22;19814;48.224;11.422;2023-07-29T15:03:08;19.80;99.90
33476;DHT22;19814;48.224;11.422;2023-07-29T15:05:33;19.60;99.90
33476;DHT22;19814;48.224;11.422;2023-07-29T15:07:59;19.50;99.90
33476;DHT22;19814;48.224;11.422;2023-07-29T15:10:24;19.40;99.90
33476;DHT22;19814;48.224;11.422;2023-07-29T15:12:51;19.20;99.90
33476;DHT22;19814;48.224;11.422;2023-07-29T15:15:16;19.10;99.90
33476;DHT22;19814;48.224;11.422;2023-07-29T15:17:42;19.10;99.90
33476;DHT22;19814;48.224;11.422;2023-07-29T15:20:08;19.10;99.90
33476;DHT22;19814;48.224;11.422;2023-07-29T15:22:34;19.00;99.90
33476;DHT22;19814;48.224;11.422;2023-07-29T15:24:59;19.10;99.90
33476;DHT22;19814;48.224;11.422;2023-07-29T15:27:29;19.10;99.90